• Join FlightAware (Why Join?)
  • Login
  • US Flag 
12:35AM EDT


 

Airport Tracker/Info


-or-


 

Live Flight TrackerFlight Track Log ✈ DAL759 ✈ 15-May-2013 ✈ KMSP - KGEG

Flight Track Log - Related Links

Times and Time Zones

All times are in EDT time to prevent confusion due to time zone crossing. See the DAL759 flight status page for this flight to view local times or setup timezone preferences in your user account.

Time Position Orientation Groundspeed Altitude Reporting Facility
EDT Latitude Longitude Course Direction KTS MPH feet Rate Location/Type
10:39PM 44.9000 -93.2667 282° West 195 224 2,300  Level Minneapolis TRACON
10:39PM 44.9111 -93.3061 292° West 221 254 3,000 2,820 Climbing Minneapolis Center
10:40PM 44.9283 -93.4003 285° West 249 287 6,300 3,060 Climbing Minneapolis Center
10:41PM 44.9373 -93.6840 282° West  Level FlightAware Approximate
10:41PM 44.9433 -93.5028 282° West 267 307 9,300  Level Minneapolis Center
10:42PM 44.9554 -93.8412 276° West  Level FlightAware Approximate
10:43PM 44.9667 -93.9999 276° West  Level FlightAware Approximate
10:43PM 44.9614 -93.6158 283° West 301 346 10,900  Level Minneapolis Center
10:44PM 44.9913 -94.1556 282° West  Level FlightAware Approximate
10:44PM 44.9881 -93.7792 283° West 357 411 13,500  Level Minneapolis Center
10:45PM 45.0147 -93.9211 285° West 377 434 15,700 2,040 Climbing Minneapolis Center
10:46PM 45.0389 -94.0650 283° West 378 435 17,700 2,100 Climbing Minneapolis Center
10:47PM 45.0692 -94.2439 284° West 389 448 20,000 1,920 Climbing Minneapolis Center
10:48PM 45.0947 -94.3981 283° West 400 460 21,700 1,560 Climbing Minneapolis Center
10:49PM 45.1247 -94.5864 283° West 409 471 23,500 1,680 Climbing Minneapolis Center
10:50PM 45.1483 -94.7294 283° West 407 468 25,500 1,740 Climbing Minneapolis Center
10:51PM 45.1728 -94.8819 283° West 402 463 27,100 1,500 Climbing Minneapolis Center
10:52PM 45.1978 -95.0339 283° West 399 459 28,600 1,380 Climbing Minneapolis Center
10:53PM 45.2253 -95.2158 282° West 396 456 30,000 660 Climbing Minneapolis Center
10:54PM 45.2494 -95.3686 283° West 399 459 30,000  Level Minneapolis Center
10:55PM 45.2683 -95.4922 282° West 402 463 30,000  Level Minneapolis Center
10:56PM 45.2969 -95.6767 282° West 401 461 30,000  Level Minneapolis Center
10:57PM 45.3206 -95.8308 282° West 403 464 30,000  Level Minneapolis Center
10:58PM 45.3447 -95.9819 283° West 397 457 30,000  Level Minneapolis Center
10:59PM 45.3619 -96.1047 281° West 398 458 30,000  Level Minneapolis Center
11:00PM 45.3944 -96.3169 282° West 395 455 30,000  Level Minneapolis Center
11:01PM 45.4164 -96.4700 282° West 398 458 30,000  Level Minneapolis Center
11:02PM 45.4378 -96.6222 281° West 395 455 30,000  Level Minneapolis Center
11:03PM 45.4642 -96.8053 282° West 396 456 30,000  Level Minneapolis Center
11:04PM 45.4858 -96.9558 282° West 393 452 30,000  Level Minneapolis Center
11:05PM 45.5064 -97.1094 281° West 396 456 30,000  Level Minneapolis Center
11:06PM 45.5281 -97.2622 281° West 395 455 30,000  Level Minneapolis Center
11:08PM 45.5528 -97.4475 281° West 398 458 30,000  Level Minneapolis Center
11:09PM 45.5744 -97.6019 281° West 400 460 30,000  Level Minneapolis Center
11:10PM 45.5953 -97.7586 281° West 402 463 30,000  Level Minneapolis Center
11:11PM 45.6156 -97.9142 281° West 402 463 30,000  Level Minneapolis Center
11:12PM 45.6381 -98.0711 282° West 401 461 30,000  Level Minneapolis Center
11:13PM 45.6619 -98.2503 281° West 411 473 30,000  Level Minneapolis Center
11:14PM 45.6811 -98.4075 280° West 409 471 30,000  Level Minneapolis Center
11:15PM 45.7019 -98.5675 281° West 409 471 30,000  Level Minneapolis Center
11:16PM 45.7222 -98.7294 280° West 412 474 30,000  Level Minneapolis Center
11:17PM 45.7422 -98.8889 280° West 411 473 30,000  Level Minneapolis Center
11:18PM 45.7619 -99.0483 280° West 410 472 30,000  Level Minneapolis Center
11:19PM 45.7800 -99.2081 279° West 409 471 30,000  Level Minneapolis Center
11:20PM 45.7992 -99.3672 280° West 408 470 30,000  Level Minneapolis Center
11:21PM 45.8186 -99.5261 280° West 407 468 30,000  Level Minneapolis Center
11:22PM 45.8400 -99.7150 279° West 404 465 30,000  Level Minneapolis Center
11:23PM 45.8572 -99.8711 279° West 401 461 30,000  Level Minneapolis Center
11:24PM 45.8750 -100.0275 279° West 401 461 30,000  Level Minneapolis Center
11:25PM 45.8931 -100.1853 279° West 401 461 30,000  Level Minneapolis Center
11:26PM 45.9100 -100.3417 279° West 400 460 30,000  Level Minneapolis Center
11:27PM 45.9236 -100.4658 279° West 397 457 30,000  Level Minneapolis Center
11:28PM 45.9442 -100.6539 279° West 399 459 30,000  Level Minneapolis Center
11:29PM 45.9608 -100.8100 279° West 398 458 30,000  Level Minneapolis Center
11:30PM 45.9772 -100.9694 278° West 402 463 30,000  Level Minneapolis Center
11:31PM 45.9931 -101.1264 278° West 400 460 30,000  Level Minneapolis Center
11:32PM 46.0122 -101.3181 278° West 404 465 30,000  Level Minneapolis Center
11:33PM 46.0283 -101.4747 278° West 400 460 30,000  Level Minneapolis Center
11:34PM 46.0450 -101.6292 279° West 396 456 30,000  Level Minneapolis Center
11:35PM 46.0608 -101.7864 278° West 397 457 30,000  Level Minneapolis Center
11:36PM 46.0750 -101.9450 277° West 399 459 30,000  Level Minneapolis Center
11:37PM 46.0908 -102.1003 278° West 397 457 30,000  Level Minneapolis Center
11:38PM 46.1056 -102.2583 278° West 398 458 30,000  Level Minneapolis Center
11:39PM 46.1200 -102.4172 278° West 400 460 30,000  Level Minneapolis Center
11:40PM 46.1361 -102.5844 278° West 399 459 30,000  Level Minneapolis Center
11:41PM 46.1497 -102.7417 277° West 397 457 30,000  Level Minneapolis Center
11:42PM 46.1639 -102.9011 277° West 400 460 30,000  Level Minneapolis Center
11:43PM 46.1767 -103.0628 277° West 405 466 30,000  Level Minneapolis Center
11:44PM 46.1878 -103.1922 277° West 406 467 30,000  Level Minneapolis Center
11:45PM 46.2028 -103.3836 277° West 403 464 30,000  Level Minneapolis Center
11:46PM 46.2167 -103.5417 277° West 400 460 30,000  Level Minneapolis Center
11:46PM 46.2192 -103.6058 273° West 400 460 30,000  Level Salt Lake Center
11:48PM 46.2308 -103.7628 276° West 397 457 30,000  Level Salt Lake Center
11:49PM 46.2433 -103.9189 277° West 394 453 30,000  Level Salt Lake Center
11:50PM 46.2550 -104.0772 276° West 395 455 30,000  Level Salt Lake Center
11:51PM 46.2672 -104.2342 276° West 394 453 30,000  Level Salt Lake Center
11:52PM 46.2789 -104.3928 276° West 396 456 30,000  Level Salt Lake Center
11:53PM 46.2894 -104.5483 276° West 393 452 30,000  Level Salt Lake Center
11:54PM 46.3006 -104.7056 276° West 392 451 30,000 540 Level Salt Lake Center
11:55PM 46.3122 -104.8758 276° West 393 452 31,200 960 Climbing Salt Lake Center
11:56PM 46.3214 -105.0253 275° West 392 451 32,000 360 Climbing Salt Lake Center
11:57PM 46.3308 -105.1969 275° West 389 448 32,000  Level Salt Lake Center
11:58PM 46.3425 -105.3475 276° West 390 449 32,000  Level Salt Lake Center
11:59PM 46.3514 -105.4981 275° West 393 452 32,000  Level Salt Lake Center
12:00AM 46.3622 -105.6717 275° West 391 450 32,000  Level Salt Lake Center
12:01AM 46.3714 -105.8244 275° West 394 453 32,000  Level Salt Lake Center
12:02AM 46.3872 -106.0044 277° West 399 459 32,000  Level Salt Lake Center
12:03AM 46.4119 -106.1536 284° West 397 457 32,000  Level Salt Lake Center
12:04AM 46.4367 -106.3042 283° West 401 461 32,000  Level Salt Lake Center
12:05AM 46.4647 -106.4828 283° West 403 464 32,000  Level Salt Lake Center
12:06AM 46.4869 -106.6336 282° West 403 464 32,000  Level Salt Lake Center
12:07AM 46.5086 -106.7833 282° West 400 460 32,000  Level Salt Lake Center
12:08AM 46.5358 -106.9586 283° West 398 458 32,000  Level Salt Lake Center
12:09AM 46.5581 -107.1111 282° West 401 461 32,000  Level Salt Lake Center
12:10AM 46.5825 -107.2853 282° West 398 458 32,000  Level Salt Lake Center
12:11AM 46.6044 -107.4347 282° West 396 456 32,000  Level Salt Lake Center
12:12AM 46.6250 -107.5842 281° West 394 453 32,000  Level Salt Lake Center
12:13AM 46.6489 -107.7578 281° West 392 451 32,000  Level Salt Lake Center
12:14AM 46.6697 -107.9061 282° West 393 452 32,000  Level Salt Lake Center
12:15AM 46.6914 -108.0628 281° West 408 470 32,000  Level Salt Lake Center
12:16AM 46.7136 -108.2375 281° West 396 456 32,000  Level Salt Lake Center
12:17AM 46.7353 -108.3892 282° West 399 459 32,000  Level Salt Lake Center
12:18AM 46.7581 -108.5653 281° West 397 457 32,000  Level Salt Lake Center
12:19AM 46.7778 -108.7156 281° West 395 455 32,000  Level Salt Lake Center
12:20AM 46.7978 -108.8653 281° West 395 455 32,000  Level Salt Lake Center
12:21AM 46.8183 -109.0408 280° West 393 452 32,000  Level Salt Lake Center
12:22AM 46.8403 -109.1983 282° West 391 450 32,000  Level Salt Lake Center
12:23AM 46.8597 -109.3533 280° West 389 448 32,000  Level Salt Lake Center
12:24AM 46.8772 -109.5094 279° West 390 449 32,000  Level Salt Lake Center
12:25AM 46.8972 -109.6631 281° West 387 445 32,000  Level Salt Lake Center
12:26AM 46.9161 -109.8178 280° West 387 445 32,000  Level Salt Lake Center
12:27AM 46.9347 -109.9725 280° West 387 445 32,000  Level Salt Lake Center
12:28AM 46.9522 -110.1267 279° West 386 444 32,000  Level Salt Lake Center
12:29AM 46.9708 -110.2828 280° West 388 447 32,000  Level Salt Lake Center
12:30AM 46.9881 -110.4372 279° West 386 444 32,000  Level Salt Lake Center
12:31AM 47.0056 -110.5942 279° West 389 448 32,000  Level Salt Lake Center
12:32AM 47.0233 -110.7506 280° West 390 449 32,000  Level Salt Lake Center
12:34AM 47.0394 -110.9069 279° West 387 445 32,000  Level Salt Lake Center
12:35AM 47.0606 -111.0939 279° West 388 447 32,000  Level Salt Lake Center
12:36AM 47.0769 -111.2514 279° West 389 448 32,000  Level Salt Lake Center
12:37AM 47.0972 -111.4403 279° West 389 448 32,000  Level Salt Lake Center
12:38AM 47.1136 -111.5986 279° West 391 450 32,000  Level Salt Lake Center
12:39AM 47.1283 -111.7567 278° West 391 450 32,000  Level Salt Lake Center
12:40AM 47.1458 -111.9161 279° West 394 453 32,000  Level Salt Lake Center
12:41AM 47.1611 -112.0750 278° West 393 452 32,000  Level Salt Lake Center
12:42AM 47.1769 -112.2325 278° West 390 449 32,000  Level Salt Lake Center
12:43AM 47.1914 -112.3911 278° West 391 450 32,000  Level Salt Lake Center
12:44AM 47.2072 -112.5494 278° West 391 450 32,000  Level Salt Lake Center
12:45AM 47.2233 -112.7097 278° West 395 455 32,000  Level Salt Lake Center
12:46AM 47.2367 -112.8667 277° West 391 450 32,000  Level Salt Lake Center
12:47AM 47.2519 -113.0308 278° West 394 453 32,000  Level Salt Lake Center
12:48AM 47.2661 -113.1906 278° West 394 453 32,000  Level Salt Lake Center
12:49AM 47.2806 -113.3542 277° West 392 451 32,000  Level Salt Lake Center
12:50AM 47.2936 -113.5103 277° West 395 455 32,000  Level Salt Lake Center
12:51AM 47.3072 -113.6703 277° West 394 453 32,000  Level Salt Lake Center
12:52AM 47.3206 -113.8300 277° West 393 452 32,000  Level Salt Lake Center
12:53AM 47.3342 -113.9908 277° West 394 453 32,000  Level Salt Lake Center
12:54AM 47.3500 -114.1839 277° West 395 455 32,000  Level Salt Lake Center
12:55AM 47.3628 -114.3458 277° West 396 456 32,000  Level Salt Lake Center
12:56AM 47.3750 -114.5081 276° West 398 458 32,000  Level Salt Lake Center
12:57AM 47.3883 -114.6694 277° West 395 455 32,000  Level Salt Lake Center
12:58AM 47.3997 -114.8306 276° West 394 453 32,000  Level Salt Lake Center
12:59AM 47.4111 -114.9897 276° West 390 449 32,000  Level Salt Lake Center
01:00AM 47.4233 -115.1497 276° West 391 450 32,000  Level Salt Lake Center
01:01AM 47.4347 -115.3119 276° West 395 455 32,000 -840 Level Salt Lake Center
01:02AM 47.4456 -115.4706 276° West 391 450 30,300 -2,640 Descending Salt Lake Center
01:03AM 47.4556 -115.6350 275° West 398 458 26,700 -3,300 Descending Salt Lake Center
01:04AM 47.4667 -115.7992 276° West 402 463 23,700 -2,820 Descending Salt Lake Center
01:05AM 47.4775 -115.9597 276° West 397 457 21,000 -2,640 Descending Salt Lake Center
01:06AM 47.4858 -116.1208 274° West 387 445 18,400 -2,520 Descending Salt Lake Center
01:07AM 47.4947 -116.2703 275° West 372 428 15,900 -2,460 Descending Salt Lake Center
01:08AM 47.5136 -116.4128 281° West 362 417 13,400 -2,100 Descending Salt Lake Center
01:09AM 47.5581 -116.5700 293° West 342 394 11,500 -1,680 Descending Seattle Center